sensor_id;sensor_type;location;lat;lon;timestamp;P1;durP1;ratioP1;P2;durP2;ratioP2
11541;SDS011;5827;49.482;7.716;2023-02-12T00:01:48;38.37;;;25.33;;
11541;SDS011;5827;49.482;7.716;2023-02-12T00:03:51;39.97;;;25.07;;
11541;SDS011;5827;49.482;7.716;2023-02-12T00:05:53;35.83;;;25.37;;
11541;SDS011;5827;49.482;7.716;2023-02-12T00:07:54;38.87;;;25.50;;
11541;SDS011;5827;49.482;7.716;2023-02-12T00:09:56;38.70;;;26.63;;
11541;SDS011;5827;49.482;7.716;2023-02-12T00:11:57;43.37;;;28.60;;
11541;SDS011;5827;49.482;7.716;2023-02-12T00:14:00;40.50;;;26.70;;
11541;SDS011;5827;49.482;7.716;2023-02-12T00:16:06;39.07;;;26.03;;
11541;SDS011;5827;49.482;7.716;2023-02-12T00:18:08;39.43;;;26.93;;
11541;SDS011;5827;49.482;7.716;2023-02-12T00:20:11;40.17;;;27.33;;
11541;SDS011;5827;49.482;7.716;2023-02-12T00:22:13;41.17;;;27.63;;
11541;SDS011;5827;49.482;7.716;2023-02-12T00:24:15;40.23;;;27.67;;
11541;SDS011;5827;49.482;7.716;2023-02-12T00:26:17;41.97;;;26.50;;
11541;SDS011;5827;49.482;7.716;2023-02-12T00:28:20;41.33;;;25.13;;
11541;SDS011;5827;49.482;7.716;2023-02-12T00:30:22;38.47;;;25.90;;
11541;SDS011;5827;49.482;7.716;2023-02-12T00:32:24;40.20;;;25.53;;
11541;SDS011;5827;49.482;7.716;2023-02-12T00:34:25;34.93;;;25.07;;
11541;SDS011;5827;49.482;7.716;2023-02-12T00:36:29;34.50;;;23.30;;
11541;SDS011;5827;49.482;7.716;2023-02-12T00:38:32;35.13;;;24.20;;
11541;SDS011;5827;49.482;7.716;2023-02-12T00:40:34;31.00;;;22.93;;
11541;SDS011;5827;49.482;7.716;2023-02-12T00:42:35;32.53;;;22.87;;
11541;SDS011;5827;49.482;7.716;2023-02-12T00:44:37;38.67;;;24.93;;
11541;SDS011;5827;49.482;7.716;2023-02-12T00:46:39;33.40;;;23.97;;
11541;SDS011;5827;49.482;7.716;2023-02-12T00:48:41;32.67;;;23.13;;
11541;SDS011;5827;49.482;7.716;2023-02-12T00:50:43;32.63;;;22.87;;
11541;SDS011;5827;49.482;7.716;2023-02-12T00:52:46;37.47;;;23.90;;
11541;SDS011;5827;49.482;7.716;2023-02-12T00:54:47;36.90;;;23.83;;
11541;SDS011;5827;49.482;7.716;2023-02-12T00:56:49;33.70;;;23.10;;
11541;SDS011;5827;49.482;7.716;2023-02-12T00:58:50;33.77;;;23.07;;
11541;SDS011;5827;49.482;7.716;2023-02-12T01:00:52;33.87;;;22.30;;
11541;SDS011;5827;49.482;7.716;2023-02-12T01:02:54;33.30;;;23.70;;
11541;SDS011;5827;49.482;7.716;2023-02-12T01:04:56;29.37;;;21.90;;
11541;SDS011;5827;49.482;7.716;2023-02-12T01:06:57;32.50;;;22.80;;
11541;SDS011;5827;49.482;7.716;2023-02-12T01:09:00;29.70;;;22.10;;
11541;SDS011;5827;49.482;7.716;2023-02-12T01:11:02;34.47;;;23.27;;
11541;SDS011;5827;49.482;7.716;2023-02-12T01:13:05;33.90;;;23.80;;
11541;SDS011;5827;49.482;7.716;2023-02-12T01:15:07;33.20;;;23.03;;
11541;SDS011;5827;49.482;7.716;2023-02-12T01:17:09;33.30;;;22.90;;
11541;SDS011;5827;49.482;7.716;2023-02-12T01:19:11;32.27;;;21.97;;
11541;SDS011;5827;49.482;7.716;2023-02-12T01:21:13;33.53;;;22.00;;
11541;SDS011;5827;49.482;7.716;2023-02-12T01:23:16;32.00;;;22.00;;
11541;SDS011;5827;49.482;7.716;2023-02-12T01:25:19;31.20;;;21.33;;
11541;SDS011;5827;49.482;7.716;2023-02-12T01:27:21;33.70;;;22.17;;
11541;SDS011;5827;49.482;7.716;2023-02-12T01:29:22;31.03;;;22.77;;
11541;SDS011;5827;49.482;7.716;2023-02-12T01:31:24;32.13;;;22.10;;
11541;SDS011;5827;49.482;7.716;2023-02-12T01:33:27;31.67;;;22.97;;
11541;SDS011;5827;49.482;7.716;2023-02-12T01:35:28;33.13;;;23.20;;
11541;SDS011;5827;49.482;7.716;2023-02-12T01:37:30;31.37;;;22.70;;
11541;SDS011;5827;49.482;7.716;2023-02-12T01:39:34;38.20;;;25.63;;
11541;SDS011;5827;49.482;7.716;2023-02-12T01:41:38;38.27;;;25.27;;
11541;SDS011;5827;49.482;7.716;2023-02-12T01:43:41;35.27;;;23.57;;
11541;SDS011;5827;49.482;7.716;2023-02-12T01:45:47;36.03;;;22.93;;
11541;SDS011;5827;49.482;7.716;2023-02-12T01:47:52;33.80;;;24.07;;
11541;SDS011;5827;49.482;7.716;2023-02-12T01:49:53;31.23;;;23.20;;
11541;SDS011;5827;49.482;7.716;2023-02-12T01:51:56;34.43;;;22.93;;
11541;SDS011;5827;49.482;7.716;2023-02-12T01:54:02;33.37;;;22.83;;
11541;SDS011;5827;49.482;7.716;2023-02-12T01:56:08;32.40;;;23.10;;
11541;SDS011;5827;49.482;7.716;2023-02-12T01:58:11;36.43;;;23.77;;
11541;SDS011;5827;49.482;7.716;2023-02-12T02:00:14;36.17;;;24.97;;
11541;SDS011;5827;49.482;7.716;2023-02-12T02:02:21;38.63;;;26.43;;
11541;SDS011;5827;49.482;7.716;2023-02-12T02:04:24;37.27;;;25.10;;
11541;SDS011;5827;49.482;7.716;2023-02-12T02:06:30;34.93;;;24.60;;
11541;SDS011;5827;49.482;7.716;2023-02-12T02:08:34;34.87;;;24.73;;
11541;SDS011;5827;49.482;7.716;2023-02-12T02:10:36;34.17;;;24.27;;
11541;SDS011;5827;49.482;7.716;2023-02-12T02:12:38;36.83;;;25.07;;
11541;SDS011;5827;49.482;7.716;2023-02-12T02:14:58;34.33;;;24.83;;
11541;SDS011;5827;49.482;7.716;2023-02-12T02:17:06;36.07;;;24.50;;
11541;SDS011;5827;49.482;7.716;2023-02-12T02:19:19;33.30;;;22.83;;
11541;SDS011;5827;49.482;7.716;2023-02-12T02:21:43;34.00;;;23.63;;
11541;SDS011;5827;49.482;7.716;2023-02-12T02:27:00;33.50;;;23.97;;
11541;SDS011;5827;49.482;7.716;2023-02-12T02:29:19;37.70;;;23.87;;
11541;SDS011;5827;49.482;7.716;2023-02-12T02:31:35;36.23;;;24.60;;
11541;SDS011;5827;49.482;7.716;2023-02-12T02:33:43;36.47;;;24.67;;
11541;SDS011;5827;49.482;7.716;2023-02-12T02:35:52;34.77;;;24.73;;
11541;SDS011;5827;49.482;7.716;2023-02-12T02:38:04;34.57;;;23.50;;
11541;SDS011;5827;49.482;7.716;2023-02-12T02:40:13;34.67;;;22.83;;
11541;SDS011;5827;49.482;7.716;2023-02-12T02:42:20;34.07;;;23.83;;
11541;SDS011;5827;49.482;7.716;2023-02-12T02:44:25;32.87;;;23.47;;
11541;SDS011;5827;49.482;7.716;2023-02-12T02:46:35;34.00;;;24.43;;
11541;SDS011;5827;49.482;7.716;2023-02-12T02:48:44;36.97;;;25.47;;
11541;SDS011;5827;49.482;7.716;2023-02-12T02:50:48;36.93;;;25.43;;
11541;SDS011;5827;49.482;7.716;2023-02-12T02:52:56;37.20;;;24.70;;
11541;SDS011;5827;49.482;7.716;2023-02-12T02:55:03;35.40;;;23.13;;
11541;SDS011;5827;49.482;7.716;2023-02-12T02:57:08;33.43;;;23.30;;
11541;SDS011;5827;49.482;7.716;2023-02-12T02:59:16;34.47;;;23.20;;
11541;SDS011;5827;49.482;7.716;2023-02-12T03:01:23;32.07;;;22.47;;
11541;SDS011;5827;49.482;7.716;2023-02-12T03:03:33;29.53;;;21.73;;
11541;SDS011;5827;49.482;7.716;2023-02-12T03:05:41;31.43;;;21.87;;
11541;SDS011;5827;49.482;7.716;2023-02-12T03:07:48;30.80;;;22.27;;
11541;SDS011;5827;49.482;7.716;2023-02-12T03:09:53;30.97;;;21.00;;
11541;SDS011;5827;49.482;7.716;2023-02-12T03:12:00;32.23;;;22.53;;
11541;SDS011;5827;49.482;7.716;2023-02-12T03:14:07;32.27;;;22.70;;
11541;SDS011;5827;49.482;7.716;2023-02-12T03:16:15;30.10;;;21.70;;
11541;SDS011;5827;49.482;7.716;2023-02-12T03:18:22;32.13;;;21.60;;
11541;SDS011;5827;49.482;7.716;2023-02-12T03:20:29;31.57;;;22.63;;
11541;SDS011;5827;49.482;7.716;2023-02-12T03:22:35;31.77;;;22.93;;
11541;SDS011;5827;49.482;7.716;2023-02-12T03:24:40;35.13;;;23.93;;
11541;SDS011;5827;49.482;7.716;2023-02-12T03:26:46;31.90;;;22.50;;
11541;SDS011;5827;49.482;7.716;2023-02-12T03:28:51;34.07;;;22.80;;
11541;SDS011;5827;49.482;7.716;2023-02-12T03:30:56;31.27;;;22.97;;
11541;SDS011;5827;49.482;7.716;2023-02-12T03:33:04;33.20;;;23.20;;
11541;SDS011;5827;49.482;7.716;2023-02-12T03:35:12;33.53;;;23.90;;
11541;SDS011;5827;49.482;7.716;2023-02-12T03:37:23;35.83;;;23.30;;
11541;SDS011;5827;49.482;7.716;2023-02-12T03:39:29;33.13;;;22.60;;
11541;SDS011;5827;49.482;7.716;2023-02-12T03:41:37;34.70;;;23.77;;
11541;SDS011;5827;49.482;7.716;2023-02-12T03:43:46;33.77;;;23.70;;
11541;SDS011;5827;49.482;7.716;2023-02-12T03:45:51;32.57;;;23.10;;
11541;SDS011;5827;49.482;7.716;2023-02-12T03:47:58;35.00;;;22.90;;
11541;SDS011;5827;49.482;7.716;2023-02-12T03:50:08;33.80;;;23.00;;
11541;SDS011;5827;49.482;7.716;2023-02-12T03:52:14;30.47;;;21.20;;
11541;SDS011;5827;49.482;7.716;2023-02-12T03:54:17;29.23;;;20.90;;
11541;SDS011;5827;49.482;7.716;2023-02-12T03:56:23;29.80;;;20.93;;
11541;SDS011;5827;49.482;7.716;2023-02-12T03:58:28;27.37;;;19.70;;
11541;SDS011;5827;49.482;7.716;2023-02-12T04:00:35;33.03;;;21.17;;
11541;SDS011;5827;49.482;7.716;2023-02-12T04:02:38;31.10;;;20.73;;
11541;SDS011;5827;49.482;7.716;2023-02-12T04:04:40;29.90;;;20.70;;
11541;SDS011;5827;49.482;7.716;2023-02-12T04:06:41;27.87;;;19.87;;
11541;SDS011;5827;49.482;7.716;2023-02-12T04:08:44;28.83;;;19.17;;
11541;SDS011;5827;49.482;7.716;2023-02-12T04:10:50;27.50;;;19.40;;
11541;SDS011;5827;49.482;7.716;2023-02-12T04:13:04;31.63;;;21.63;;
11541;SDS011;5827;49.482;7.716;2023-02-12T04:15:28;30.57;;;20.80;;
11541;SDS011;5827;49.482;7.716;2023-02-12T04:17:43;32.90;;;21.20;;
11541;SDS011;5827;49.482;7.716;2023-02-12T04:19:53;31.30;;;21.97;;
11541;SDS011;5827;49.482;7.716;2023-02-12T04:22:11;28.57;;;20.87;;
11541;SDS011;5827;49.482;7.716;2023-02-12T04:24:23;28.27;;;20.57;;
11541;SDS011;5827;49.482;7.716;2023-02-12T04:26:35;28.17;;;20.73;;
11541;SDS011;5827;49.482;7.716;2023-02-12T04:28:45;25.23;;;18.80;;
11541;SDS011;5827;49.482;7.716;2023-02-12T04:30:53;29.17;;;20.67;;
11541;SDS011;5827;49.482;7.716;2023-02-12T04:33:00;31.33;;;19.57;;
11541;SDS011;5827;49.482;7.716;2023-02-12T04:35:06;27.43;;;20.10;;
11541;SDS011;5827;49.482;7.716;2023-02-12T04:37:16;27.87;;;19.67;;
11541;SDS011;5827;49.482;7.716;2023-02-12T04:39:21;29.70;;;20.20;;
11541;SDS011;5827;49.482;7.716;2023-02-12T04:41:26;29.97;;;20.47;;
11541;SDS011;5827;49.482;7.716;2023-02-12T04:43:29;24.43;;;19.50;;
11541;SDS011;5827;49.482;7.716;2023-02-12T04:45:34;29.70;;;18.67;;
11541;SDS011;5827;49.482;7.716;2023-02-12T04:47:36;27.43;;;19.33;;
11541;SDS011;5827;49.482;7.716;2023-02-12T04:49:38;26.67;;;18.40;;
11541;SDS011;5827;49.482;7.716;2023-02-12T04:51:39;29.97;;;19.30;;
11541;SDS011;5827;49.482;7.716;2023-02-12T04:53:41;28.33;;;19.30;;
11541;SDS011;5827;49.482;7.716;2023-02-12T04:55:42;27.40;;;19.13;;
11541;SDS011;5827;49.482;7.716;2023-02-12T04:57:43;25.20;;;17.63;;
11541;SDS011;5827;49.482;7.716;2023-02-12T04:59:46;25.07;;;18.03;;
11541;SDS011;5827;49.482;7.716;2023-02-12T05:01:48;20.90;;;15.73;;
11541;SDS011;5827;49.482;7.716;2023-02-12T05:03:50;24.37;;;17.93;;
11541;SDS011;5827;49.482;7.716;2023-02-12T05:05:52;24.70;;;17.23;;
11541;SDS011;5827;49.482;7.716;2023-02-12T05:07:53;24.27;;;17.33;;
11541;SDS011;5827;49.482;7.716;2023-02-12T05:09:55;23.23;;;17.47;;
11541;SDS011;5827;49.482;7.716;2023-02-12T05:11:56;25.67;;;18.23;;
11541;SDS011;5827;49.482;7.716;2023-02-12T05:13:58;28.60;;;18.13;;
11541;SDS011;5827;49.482;7.716;2023-02-12T05:16:03;24.53;;;18.23;;
11541;SDS011;5827;49.482;7.716;2023-02-12T05:18:05;24.33;;;17.83;;
11541;SDS011;5827;49.482;7.716;2023-02-12T05:20:07;27.93;;;18.70;;
11541;SDS011;5827;49.482;7.716;2023-02-12T05:22:10;25.60;;;17.90;;
11541;SDS011;5827;49.482;7.716;2023-02-12T05:24:11;24.87;;;18.57;;
11541;SDS011;5827;49.482;7.716;2023-02-12T05:26:14;25.30;;;18.53;;
11541;SDS011;5827;49.482;7.716;2023-02-12T05:28:18;27.27;;;17.90;;
11541;SDS011;5827;49.482;7.716;2023-02-12T05:30:19;24.97;;;18.47;;
11541;SDS011;5827;49.482;7.716;2023-02-12T05:32:22;24.20;;;17.33;;
11541;SDS011;5827;49.482;7.716;2023-02-12T05:34:24;27.43;;;18.23;;
11541;SDS011;5827;49.482;7.716;2023-02-12T05:36:26;26.50;;;17.73;;
11541;SDS011;5827;49.482;7.716;2023-02-12T05:38:27;26.13;;;18.70;;
11541;SDS011;5827;49.482;7.716;2023-02-12T05:40:29;27.80;;;18.80;;
11541;SDS011;5827;49.482;7.716;2023-02-12T05:42:30;28.63;;;18.77;;
11541;SDS011;5827;49.482;7.716;2023-02-12T05:44:32;30.97;;;20.20;;
11541;SDS011;5827;49.482;7.716;2023-02-12T05:46:33;30.13;;;20.80;;
11541;SDS011;5827;49.482;7.716;2023-02-12T05:48:37;31.20;;;20.27;;
11541;SDS011;5827;49.482;7.716;2023-02-12T05:50:39;26.73;;;19.57;;
11541;SDS011;5827;49.482;7.716;2023-02-12T05:52:40;29.27;;;19.83;;
11541;SDS011;5827;49.482;7.716;2023-02-12T05:54:42;28.23;;;18.93;;
11541;SDS011;5827;49.482;7.716;2023-02-12T05:56:44;33.43;;;20.33;;
11541;SDS011;5827;49.482;7.716;2023-02-12T05:58:49;33.20;;;21.50;;
11541;SDS011;5827;49.482;7.716;2023-02-12T06:00:53;31.23;;;21.53;;
11541;SDS011;5827;49.482;7.716;2023-02-12T06:02:54;29.60;;;21.27;;
11541;SDS011;5827;49.482;7.716;2023-02-12T06:04:57;28.80;;;20.47;;
11541;SDS011;5827;49.482;7.716;2023-02-12T06:06:59;30.47;;;20.97;;
11541;SDS011;5827;49.482;7.716;2023-02-12T06:09:01;27.77;;;20.67;;
11541;SDS011;5827;49.482;7.716;2023-02-12T06:11:03;30.67;;;21.80;;
11541;SDS011;5827;49.482;7.716;2023-02-12T06:13:06;31.10;;;21.13;;
11541;SDS011;5827;49.482;7.716;2023-02-12T06:15:08;30.93;;;20.23;;
11541;SDS011;5827;49.482;7.716;2023-02-12T06:17:09;30.33;;;21.33;;
11541;SDS011;5827;49.482;7.716;2023-02-12T06:19:11;33.60;;;23.03;;
11541;SDS011;5827;49.482;7.716;2023-02-12T06:21:14;34.83;;;25.20;;
11541;SDS011;5827;49.482;7.716;2023-02-12T06:23:16;32.87;;;22.27;;
11541;SDS011;5827;49.482;7.716;2023-02-12T06:25:18;34.03;;;23.53;;
11541;SDS011;5827;49.482;7.716;2023-02-12T06:27:19;33.40;;;22.80;;
11541;SDS011;5827;49.482;7.716;2023-02-12T06:29:21;26.93;;;20.80;;
11541;SDS011;5827;49.482;7.716;2023-02-12T06:31:24;33.93;;;22.03;;
11541;SDS011;5827;49.482;7.716;2023-02-12T06:33:26;32.73;;;21.23;;
11541;SDS011;5827;49.482;7.716;2023-02-12T06:35:28;33.00;;;21.53;;
11541;SDS011;5827;49.482;7.716;2023-02-12T06:37:31;32.90;;;21.37;;
11541;SDS011;5827;49.482;7.716;2023-02-12T06:39:35;27.93;;;20.50;;
11541;SDS011;5827;49.482;7.716;2023-02-12T06:41:38;32.93;;;21.47;;
11541;SDS011;5827;49.482;7.716;2023-02-12T06:43:40;30.50;;;21.10;;
11541;SDS011;5827;49.482;7.716;2023-02-12T06:45:41;30.83;;;20.40;;
11541;SDS011;5827;49.482;7.716;2023-02-12T06:47:43;29.40;;;20.30;;
11541;SDS011;5827;49.482;7.716;2023-02-12T06:49:45;27.40;;;19.47;;
11541;SDS011;5827;49.482;7.716;2023-02-12T06:51:47;28.33;;;20.07;;
11541;SDS011;5827;49.482;7.716;2023-02-12T06:53:52;26.00;;;19.63;;
11541;SDS011;5827;49.482;7.716;2023-02-12T06:55:59;31.47;;;20.60;;
11541;SDS011;5827;49.482;7.716;2023-02-12T06:58:10;30.90;;;21.07;;
11541;SDS011;5827;49.482;7.716;2023-02-12T07:00:14;31.07;;;21.17;;
11541;SDS011;5827;49.482;7.716;2023-02-12T07:02:29;28.53;;;20.60;;
11541;SDS011;5827;49.482;7.716;2023-02-12T07:04:31;30.53;;;22.07;;
11541;SDS011;5827;49.482;7.716;2023-02-12T07:06:33;30.60;;;21.27;;
11541;SDS011;5827;49.482;7.716;2023-02-12T07:08:36;28.43;;;19.70;;
11541;SDS011;5827;49.482;7.716;2023-02-12T07:10:38;27.97;;;19.60;;
11541;SDS011;5827;49.482;7.716;2023-02-12T07:12:40;29.27;;;21.10;;
11541;SDS011;5827;49.482;7.716;2023-02-12T07:14:42;34.40;;;23.33;;
11541;SDS011;5827;49.482;7.716;2023-02-12T07:16:43;34.07;;;22.50;;
11541;SDS011;5827;49.482;7.716;2023-02-12T07:18:45;30.43;;;21.77;;
11541;SDS011;5827;49.482;7.716;2023-02-12T07:20:46;35.03;;;22.67;;
11541;SDS011;5827;49.482;7.716;2023-02-12T07:22:48;31.73;;;21.07;;
11541;SDS011;5827;49.482;7.716;2023-02-12T07:24:50;29.03;;;20.60;;
11541;SDS011;5827;49.482;7.716;2023-02-12T07:26:53;31.07;;;22.70;;
11541;SDS011;5827;49.482;7.716;2023-02-12T07:28:55;28.83;;;20.73;;
11541;SDS011;5827;49.482;7.716;2023-02-12T07:30:57;31.53;;;22.03;;
11541;SDS011;5827;49.482;7.716;2023-02-12T07:32:59;28.87;;;20.73;;
11541;SDS011;5827;49.482;7.716;2023-02-12T07:35:00;28.70;;;21.17;;
11541;SDS011;5827;49.482;7.716;2023-02-12T07:37:02;32.97;;;22.00;;
11541;SDS011;5827;49.482;7.716;2023-02-12T07:39:03;29.13;;;20.53;;
11541;SDS011;5827;49.482;7.716;2023-02-12T07:41:06;29.93;;;21.00;;
11541;SDS011;5827;49.482;7.716;2023-02-12T07:43:11;29.30;;;21.30;;
11541;SDS011;5827;49.482;7.716;2023-02-12T07:45:12;29.33;;;21.73;;
11541;SDS011;5827;49.482;7.716;2023-02-12T07:47:14;33.03;;;22.90;;
11541;SDS011;5827;49.482;7.716;2023-02-12T07:49:16;31.87;;;23.23;;
11541;SDS011;5827;49.482;7.716;2023-02-12T07:51:19;31.30;;;22.77;;
11541;SDS011;5827;49.482;7.716;2023-02-12T07:53:21;30.40;;;22.87;;
11541;SDS011;5827;49.482;7.716;2023-02-12T07:55:22;31.47;;;23.90;;
11541;SDS011;5827;49.482;7.716;2023-02-12T07:57:25;31.37;;;22.30;;
11541;SDS011;5827;49.482;7.716;2023-02-12T07:59:28;35.57;;;24.10;;
11541;SDS011;5827;49.482;7.716;2023-02-12T08:01:30;29.33;;;22.33;;
11541;SDS011;5827;49.482;7.716;2023-02-12T08:03:33;31.33;;;22.23;;
11541;SDS011;5827;49.482;7.716;2023-02-12T08:05:35;30.53;;;21.27;;
11541;SDS011;5827;49.482;7.716;2023-02-12T08:07:36;31.60;;;21.27;;
11541;SDS011;5827;49.482;7.716;2023-02-12T08:09:38;28.63;;;20.90;;
11541;SDS011;5827;49.482;7.716;2023-02-12T08:11:40;30.40;;;21.37;;
11541;SDS011;5827;49.482;7.716;2023-02-12T08:13:43;28.90;;;21.67;;
11541;SDS011;5827;49.482;7.716;2023-02-12T08:15:46;27.70;;;19.93;;
11541;SDS011;5827;49.482;7.716;2023-02-12T08:17:48;31.20;;;21.37;;
11541;SDS011;5827;49.482;7.716;2023-02-12T08:19:50;30.07;;;20.37;;
11541;SDS011;5827;49.482;7.716;2023-02-12T08:21:51;30.03;;;21.43;;
11541;SDS011;5827;49.482;7.716;2023-02-12T08:23:54;28.37;;;20.60;;
11541;SDS011;5827;49.482;7.716;2023-02-12T08:26:04;28.33;;;19.57;;
11541;SDS011;5827;49.482;7.716;2023-02-12T08:28:07;30.47;;;22.83;;
11541;SDS011;5827;49.482;7.716;2023-02-12T08:30:12;35.50;;;23.07;;
11541;SDS011;5827;49.482;7.716;2023-02-12T08:32:18;32.33;;;23.07;;
11541;SDS011;5827;49.482;7.716;2023-02-12T08:34:21;33.20;;;24.63;;
11541;SDS011;5827;49.482;7.716;2023-02-12T08:36:26;34.40;;;23.53;;
11541;SDS011;5827;49.482;7.716;2023-02-12T08:38:29;35.37;;;24.67;;
11541;SDS011;5827;49.482;7.716;2023-02-12T08:40:31;32.27;;;22.73;;
11541;SDS011;5827;49.482;7.716;2023-02-12T08:42:33;31.50;;;23.10;;
11541;SDS011;5827;49.482;7.716;2023-02-12T08:44:35;32.93;;;22.90;;
11541;SDS011;5827;49.482;7.716;2023-02-12T08:46:37;34.53;;;23.83;;
11541;SDS011;5827;49.482;7.716;2023-02-12T08:48:41;31.03;;;23.63;;
11541;SDS011;5827;49.482;7.716;2023-02-12T08:50:44;35.37;;;24.17;;
11541;SDS011;5827;49.482;7.716;2023-02-12T08:52:46;32.57;;;23.50;;
11541;SDS011;5827;49.482;7.716;2023-02-12T08:54:47;35.40;;;23.90;;
11541;SDS011;5827;49.482;7.716;2023-02-12T08:56:49;35.73;;;23.80;;
11541;SDS011;5827;49.482;7.716;2023-02-12T08:58:51;34.63;;;24.63;;
11541;SDS011;5827;49.482;7.716;2023-02-12T09:00:53;31.67;;;23.47;;
11541;SDS011;5827;49.482;7.716;2023-02-12T09:02:54;34.33;;;23.77;;
11541;SDS011;5827;49.482;7.716;2023-02-12T09:04:57;33.43;;;23.97;;
11541;SDS011;5827;49.482;7.716;2023-02-12T09:06:59;33.30;;;23.33;;
11541;SDS011;5827;49.482;7.716;2023-02-12T09:09:01;30.00;;;23.30;;
11541;SDS011;5827;49.482;7.716;2023-02-12T09:11:03;35.57;;;23.83;;
11541;SDS011;5827;49.482;7.716;2023-02-12T09:13:05;36.07;;;25.73;;
11541;SDS011;5827;49.482;7.716;2023-02-12T09:15:07;38.33;;;25.20;;
11541;SDS011;5827;49.482;7.716;2023-02-12T09:17:09;35.30;;;24.10;;
11541;SDS011;5827;49.482;7.716;2023-02-12T09:19:11;34.27;;;24.00;;
11541;SDS011;5827;49.482;7.716;2023-02-12T09:21:15;31.23;;;22.70;;
11541;SDS011;5827;49.482;7.716;2023-02-12T09:23:17;35.20;;;24.17;;
11541;SDS011;5827;49.482;7.716;2023-02-12T09:25:18;39.33;;;26.20;;
11541;SDS011;5827;49.482;7.716;2023-02-12T09:27:20;37.10;;;24.77;;
11541;SDS011;5827;49.482;7.716;2023-02-12T09:29:21;38.40;;;24.73;;
11541;SDS011;5827;49.482;7.716;2023-02-12T09:31:24;41.37;;;26.63;;
11541;SDS011;5827;49.482;7.716;2023-02-12T09:33:27;50.27;;;31.63;;
11541;SDS011;5827;49.482;7.716;2023-02-12T09:35:29;48.83;;;28.63;;
11541;SDS011;5827;49.482;7.716;2023-02-12T09:37:32;50.83;;;30.70;;
11541;SDS011;5827;49.482;7.716;2023-02-12T09:39:33;47.10;;;30.00;;
11541;SDS011;5827;49.482;7.716;2023-02-12T09:41:43;48.60;;;30.10;;
11541;SDS011;5827;49.482;7.716;2023-02-12T09:43:55;53.43;;;29.73;;
11541;SDS011;5827;49.482;7.716;2023-02-12T09:46:02;51.70;;;30.60;;
11541;SDS011;5827;49.482;7.716;2023-02-12T09:48:12;53.27;;;32.40;;
11541;SDS011;5827;49.482;7.716;2023-02-12T09:50:26;56.40;;;32.70;;
11541;SDS011;5827;49.482;7.716;2023-02-12T09:52:38;52.60;;;29.93;;
11541;SDS011;5827;49.482;7.716;2023-02-12T09:54:41;52.77;;;30.57;;
11541;SDS011;5827;49.482;7.716;2023-02-12T09:56:43;51.83;;;29.63;;
11541;SDS011;5827;49.482;7.716;2023-02-12T09:58:50;51.67;;;29.57;;
11541;SDS011;5827;49.482;7.716;2023-02-12T10:00:55;52.43;;;30.63;;
11541;SDS011;5827;49.482;7.716;2023-02-12T10:02:59;53.37;;;31.23;;
11541;SDS011;5827;49.482;7.716;2023-02-12T10:05:02;52.67;;;30.13;;
11541;SDS011;5827;49.482;7.716;2023-02-12T10:07:05;49.97;;;29.43;;
11541;SDS011;5827;49.482;7.716;2023-02-12T10:11:48;53.17;;;30.07;;
11541;SDS011;5827;49.482;7.716;2023-02-12T10:13:58;52.53;;;30.97;;
11541;SDS011;5827;49.482;7.716;2023-02-12T10:16:11;53.87;;;30.87;;
11541;SDS011;5827;49.482;7.716;2023-02-12T10:18:25;55.40;;;31.83;;
11541;SDS011;5827;49.482;7.716;2023-02-12T10:20:50;58.47;;;33.00;;
11541;SDS011;5827;49.482;7.716;2023-02-12T10:22:57;50.60;;;30.27;;
11541;SDS011;5827;49.482;7.716;2023-02-12T10:25:23;50.83;;;29.30;;
11541;SDS011;5827;49.482;7.716;2023-02-12T10:27:38;57.27;;;31.50;;
11541;SDS011;5827;49.482;7.716;2023-02-12T10:29:44;51.33;;;29.80;;
11541;SDS011;5827;49.482;7.716;2023-02-12T10:31:47;53.57;;;29.23;;
11541;SDS011;5827;49.482;7.716;2023-02-12T10:33:52;50.57;;;30.90;;
11541;SDS011;5827;49.482;7.716;2023-02-12T10:35:58;49.43;;;29.23;;
11541;SDS011;5827;49.482;7.716;2023-02-12T10:38:06;50.57;;;27.93;;
11541;SDS011;5827;49.482;7.716;2023-02-12T10:40:15;48.97;;;28.40;;
11541;SDS011;5827;49.482;7.716;2023-02-12T10:42:24;48.17;;;28.33;;
11541;SDS011;5827;49.482;7.716;2023-02-12T10:44:33;46.57;;;28.37;;
11541;SDS011;5827;49.482;7.716;2023-02-12T10:46:35;47.37;;;27.47;;
11541;SDS011;5827;49.482;7.716;2023-02-12T10:48:37;48.40;;;27.90;;
11541;SDS011;5827;49.482;7.716;2023-02-12T10:50:48;48.40;;;28.40;;
11541;SDS011;5827;49.482;7.716;2023-02-12T10:52:56;39.93;;;24.07;;
11541;SDS011;5827;49.482;7.716;2023-02-12T10:55:02;42.87;;;25.30;;
11541;SDS011;5827;49.482;7.716;2023-02-12T10:57:26;39.43;;;23.30;;
11541;SDS011;5827;49.482;7.716;2023-02-12T10:59:29;40.30;;;22.60;;
11541;SDS011;5827;49.482;7.716;2023-02-12T11:01:32;32.17;;;21.23;;
11541;SDS011;5827;49.482;7.716;2023-02-12T11:03:35;34.67;;;20.97;;
11541;SDS011;5827;49.482;7.716;2023-02-12T11:05:39;35.87;;;21.17;;
11541;SDS011;5827;49.482;7.716;2023-02-12T11:07:45;35.93;;;21.53;;
11541;SDS011;5827;49.482;7.716;2023-02-12T11:09:48;34.07;;;21.10;;
11541;SDS011;5827;49.482;7.716;2023-02-12T11:11:51;36.63;;;20.83;;
11541;SDS011;5827;49.482;7.716;2023-02-12T11:13:55;35.70;;;21.67;;
11541;SDS011;5827;49.482;7.716;2023-02-12T11:15:58;31.83;;;20.43;;
11541;SDS011;5827;49.482;7.716;2023-02-12T11:18:01;34.97;;;20.97;;
11541;SDS011;5827;49.482;7.716;2023-02-12T11:20:07;34.27;;;21.00;;
11541;SDS011;5827;49.482;7.716;2023-02-12T11:22:23;29.83;;;18.37;;
11541;SDS011;5827;49.482;7.716;2023-02-12T11:24:30;28.57;;;18.83;;
11541;SDS011;5827;49.482;7.716;2023-02-12T11:26:32;30.73;;;18.17;;
11541;SDS011;5827;49.482;7.716;2023-02-12T11:28:34;33.37;;;19.73;;
11541;SDS011;5827;49.482;7.716;2023-02-12T11:30:38;30.67;;;18.27;;
11541;SDS011;5827;49.482;7.716;2023-02-12T11:32:49;32.13;;;17.50;;
11541;SDS011;5827;49.482;7.716;2023-02-12T11:35:00;26.77;;;17.40;;
11541;SDS011;5827;49.482;7.716;2023-02-12T11:37:09;29.03;;;18.83;;
11541;SDS011;5827;49.482;7.716;2023-02-12T11:39:17;25.53;;;16.63;;
11541;SDS011;5827;49.482;7.716;2023-02-12T11:41:22;23.67;;;15.67;;
11541;SDS011;5827;49.482;7.716;2023-02-12T11:43:27;26.23;;;16.33;;
11541;SDS011;5827;49.482;7.716;2023-02-12T11:45:30;25.70;;;16.00;;
11541;SDS011;5827;49.482;7.716;2023-02-12T11:47:36;25.40;;;16.63;;
11541;SDS011;5827;49.482;7.716;2023-02-12T11:49:42;24.70;;;16.67;;
11541;SDS011;5827;49.482;7.716;2023-02-12T11:51:50;24.13;;;15.80;;
11541;SDS011;5827;49.482;7.716;2023-02-12T11:53:52;20.53;;;14.60;;
11541;SDS011;5827;49.482;7.716;2023-02-12T11:55:58;20.53;;;13.53;;
11541;SDS011;5827;49.482;7.716;2023-02-12T11:58:03;19.47;;;13.67;;
11541;SDS011;5827;49.482;7.716;2023-02-12T12:00:13;19.87;;;14.17;;
11541;SDS011;5827;49.482;7.716;2023-02-12T12:02:21;22.30;;;13.80;;
11541;SDS011;5827;49.482;7.716;2023-02-12T12:04:26;19.97;;;13.47;;
11541;SDS011;5827;49.482;7.716;2023-02-12T12:06:32;24.07;;;14.27;;
11541;SDS011;5827;49.482;7.716;2023-02-12T12:08:38;22.13;;;14.70;;
11541;SDS011;5827;49.482;7.716;2023-02-12T12:10:49;21.43;;;14.33;;
11541;SDS011;5827;49.482;7.716;2023-02-12T12:12:56;20.80;;;14.83;;
11541;SDS011;5827;49.482;7.716;2023-02-12T12:15:04;22.17;;;14.57;;
11541;SDS011;5827;49.482;7.716;2023-02-12T12:17:32;22.57;;;15.13;;
11541;SDS011;5827;49.482;7.716;2023-02-12T12:20:02;21.93;;;13.90;;
11541;SDS011;5827;49.482;7.716;2023-02-12T12:22:10;23.93;;;15.17;;
11541;SDS011;5827;49.482;7.716;2023-02-12T12:24:18;22.50;;;15.30;;
11541;SDS011;5827;49.482;7.716;2023-02-12T12:26:24;23.17;;;15.30;;